Basin, Montana
Current Conditions -  °F | °C
As of 5:53 PM on Sunday 21 Dec 2014 (Local Time) from KBTM Reporting Station
Broken Clouds Broken Clouds  
Wind Chill: -4°   Ceiling: 12000
Heat Index: -1°   Visibility: 10mi
Dew Point: -3°   Wind: 6mph
Humidity: 85%   Direction: 320°NW
Pressure: 29.78"   Gusts: NA
Location:  46.27°N, 112.26°W
Report Text: KBTM 220053Z AUTO 32005KT 10SM BKN120 M01/M03 A2978 RMK AO2 SNE09 SLP102 P0000 T10061028
Loading
Personal Weather Stations






























Interactive Weather Map New forecast layout! Learn more

10-Day Weather Forecast

Advertisements
Track Severe Weather on mobile